HAW weather

Haverfordwest Airport
Haverfordwest, Wales, United Kingdom

Public forecast

Using degrees Celsius for public forecast. Weather courtesy of forecast.io.

METAR (pilot weather report)

Report is more than 6 hours old.

Closest report is MoD St. Athan, 62.4 nm (115.6 km) ESE. Retrieved 2019/04/01 12:50 UTC (19 days ago):

EGDX 011250Z AUTO 10008KT 9999 NCD 11/05 Q1019

TAF (pilot weather forecast)

Forecast is more than 12 hours old.

Closest forecast is Cardiff International Airport, 65.8 nm (121.8 km) ESE. Retrieved 2019/04/19 00:00 UTC (1 day ago):

TAF EGFF 192253Z 2000/2024 04005KT CAVOK PROB30 TEMPO 2003/2009 9000